createdAt,value
2022-10-13T00:01:33.893Z,100.00
2022-10-13T00:03:37.141Z,100.00
2022-10-13T00:05:41.273Z,100.00
2022-10-13T00:07:44.394Z,100.00
2022-10-13T00:09:45.865Z,100.00
2022-10-13T00:11:47.180Z,100.00
2022-10-13T00:13:49.979Z,100.00
2022-10-13T00:15:51.551Z,100.00
2022-10-13T00:17:53.032Z,100.00
2022-10-13T00:19:55.662Z,100.00
2022-10-13T00:21:57.144Z,100.00
2022-10-13T00:23:58.463Z,100.00
2022-10-13T00:26:03.367Z,100.00
2022-10-13T00:28:04.799Z,100.00
2022-10-13T00:30:06.690Z,100.00
2022-10-13T00:32:08.161Z,100.00
2022-10-13T00:34:09.658Z,100.00
2022-10-13T00:36:12.773Z,100.00
2022-10-13T00:38:15.042Z,100.00
2022-10-13T00:40:16.540Z,100.00
2022-10-13T00:42:18.134Z,100.00
2022-10-13T00:45:08.815Z,100.00
2022-10-13T00:47:10.459Z,100.00
2022-10-13T00:49:13.982Z,100.00
2022-10-13T00:51:20.287Z,100.00
2022-10-13T00:53:24.130Z,100.00
2022-10-13T00:55:29.395Z,100.00
2022-10-13T00:57:31.358Z,100.00
2022-10-13T00:59:32.862Z,100.00
2022-10-13T01:01:34.832Z,100.00
2022-10-13T01:03:37.131Z,100.00
2022-10-13T01:05:40.389Z,100.00
2022-10-13T01:07:43.968Z,100.00
2022-10-13T01:09:45.479Z,100.00
2022-10-13T01:11:53.065Z,100.00
2022-10-13T01:14:01.962Z,100.00
2022-10-13T01:16:13.160Z,100.00
2022-10-13T01:18:22.226Z,100.00
2022-10-13T01:21:01.694Z,100.00
2022-10-13T01:23:22.160Z,100.00
2022-10-13T01:25:42.997Z,100.00
2022-10-13T01:28:00.117Z,100.00
2022-10-13T01:30:13.070Z,100.00
2022-10-13T01:32:21.127Z,100.00
2022-10-13T01:34:31.710Z,100.00
2022-10-13T01:36:37.951Z,100.00
2022-10-13T01:38:46.361Z,100.00
2022-10-13T01:40:51.996Z,100.00
2022-10-13T01:42:58.435Z,100.00
2022-10-13T01:45:02.252Z,100.00
2022-10-13T01:47:07.760Z,100.00
2022-10-13T01:49:12.404Z,100.00
2022-10-13T01:51:18.187Z,100.00
2022-10-13T01:53:20.893Z,100.00
2022-10-13T01:55:22.568Z,100.00
2022-10-13T01:57:30.596Z,100.00
2022-10-13T01:59:34.142Z,100.00
2022-10-13T02:01:51.334Z,100.00
2022-10-13T02:04:03.380Z,100.00
2022-10-13T02:06:16.291Z,100.00
2022-10-13T02:08:25.127Z,100.00
2022-10-13T02:10:31.389Z,100.00
2022-10-13T02:12:38.149Z,100.00
2022-10-13T02:14:42.380Z,100.00
2022-10-13T02:16:46.000Z,100.00
2022-10-13T02:18:47.933Z,100.00
2022-10-13T02:20:51.022Z,100.00
2022-10-13T02:22:58.593Z,100.00
2022-10-13T02:25:00.120Z,100.00
2022-10-13T02:27:01.454Z,100.00
2022-10-13T02:29:09.156Z,100.00
2022-10-13T02:31:10.695Z,100.00
2022-10-13T02:33:12.420Z,100.00
2022-10-13T02:35:13.993Z,100.00
2022-10-13T02:37:17.138Z,100.00
2022-10-13T02:39:18.590Z,100.00
2022-10-13T02:41:20.035Z,100.00
2022-10-13T02:43:21.539Z,100.00
2022-10-13T02:45:23.029Z,100.00
2022-10-13T02:47:24.576Z,100.00
2022-10-13T02:49:25.938Z,100.00
2022-10-13T02:51:27.428Z,100.00
2022-10-13T02:53:29.827Z,100.00
2022-10-13T02:55:32.737Z,100.00
2022-10-13T02:57:34.390Z,100.00
2022-10-13T02:59:35.848Z,100.00
2022-10-13T03:01:37.398Z,100.00
2022-10-13T03:03:38.868Z,100.00
2022-10-13T03:05:40.348Z,100.00
2022-10-13T03:07:42.124Z,100.00
2022-10-13T03:09:43.575Z,100.00
2022-10-13T03:11:46.375Z,100.00
2022-10-13T03:13:47.849Z,100.00
2022-10-13T03:15:49.462Z,100.00
2022-10-13T03:17:51.036Z,100.00
2022-10-13T03:19:52.564Z,100.00
2022-10-13T03:21:53.897Z,100.00
2022-10-13T03:23:55.373Z,100.00
2022-10-13T03:25:56.743Z,100.00
2022-10-13T03:27:59.697Z,100.00
2022-10-13T03:30:01.181Z,100.00
2022-10-13T03:32:02.514Z,100.00
2022-10-13T03:34:03.956Z,100.00
2022-10-13T03:36:06.378Z,100.00
2022-10-13T03:38:08.239Z,100.00
2022-10-13T03:40:10.916Z,100.00
2022-10-13T03:42:12.350Z,100.00
2022-10-13T03:44:15.221Z,100.00
2022-10-13T03:46:17.824Z,100.00
2022-10-13T03:48:19.375Z,100.00
2022-10-13T03:50:20.902Z,100.00
2022-10-13T03:52:22.960Z,100.00
2022-10-13T03:54:24.425Z,100.00
2022-10-13T03:56:26.648Z,100.00
2022-10-13T03:58:28.490Z,100.00
2022-10-13T04:00:31.272Z,100.00
2022-10-13T04:02:32.740Z,100.00
2022-10-13T04:04:34.048Z,100.00
2022-10-13T04:06:35.573Z,100.00
2022-10-13T04:08:37.103Z,100.00
2022-10-13T04:10:38.977Z,100.00
2022-10-13T04:12:40.428Z,100.00
2022-10-13T04:14:41.710Z,100.00
2022-10-13T04:16:44.530Z,100.00
2022-10-13T04:18:50.091Z,100.00
2022-10-13T04:20:51.568Z,100.00
2022-10-13T04:22:52.876Z,100.00
2022-10-13T04:24:54.346Z,100.00
2022-10-13T04:26:55.662Z,100.00
2022-10-13T04:28:57.136Z,100.00
2022-10-13T04:30:58.594Z,100.00
2022-10-13T04:33:01.500Z,100.00
2022-10-13T04:35:03.503Z,100.00
2022-10-13T04:37:04.985Z,100.00
2022-10-13T04:39:06.288Z,100.00
2022-10-13T04:41:08.761Z,100.00
2022-10-13T04:43:10.323Z,100.00
2022-10-13T04:45:11.677Z,100.00
2022-10-13T04:47:13.184Z,100.00
2022-10-13T04:49:15.834Z,100.00
2022-10-13T04:51:19.314Z,100.00
2022-10-13T04:53:20.749Z,100.00
2022-10-13T04:55:22.203Z,100.00
2022-10-13T04:57:23.659Z,100.00
2022-10-13T04:59:25.290Z,100.00
2022-10-13T05:01:27.015Z,100.00
2022-10-13T05:03:29.057Z,100.00
2022-10-13T05:05:34.874Z,100.00
2022-10-13T05:07:36.325Z,100.00
2022-10-13T05:09:38.036Z,100.00
2022-10-13T05:11:39.502Z,100.00
2022-10-13T05:13:40.800Z,100.00
2022-10-13T05:15:42.298Z,100.00
2022-10-13T05:17:43.587Z,100.00
2022-10-13T05:19:45.052Z,100.00
2022-10-13T05:21:47.939Z,100.00
2022-10-13T05:23:49.806Z,100.00
2022-10-13T05:25:51.248Z,100.00
2022-10-13T05:27:53.009Z,100.00
2022-10-13T05:29:54.475Z,100.00
2022-10-13T05:31:55.987Z,100.00
2022-10-13T05:33:57.319Z,100.00
2022-10-13T05:36:03.779Z,100.00
2022-10-13T05:38:06.608Z,100.00
2022-10-13T05:40:09.205Z,100.00
2022-10-13T05:42:10.815Z,100.00
2022-10-13T05:44:12.380Z,100.00
2022-10-13T05:46:14.031Z,100.00
2022-10-13T05:48:15.531Z,100.00
2022-10-13T05:50:17.037Z,100.00
2022-10-13T05:52:18.983Z,100.00
2022-10-13T05:54:25.328Z,100.00
2022-10-13T05:56:33.149Z,100.00
2022-10-13T05:58:39.222Z,100.00
2022-10-13T06:00:42.999Z,100.00
2022-10-13T06:02:49.672Z,100.00
2022-10-13T06:04:54.962Z,100.00
2022-10-13T06:06:56.567Z,100.00
2022-10-13T06:08:58.445Z,100.00
2022-10-13T06:11:02.787Z,100.00
2022-10-13T06:13:04.205Z,100.00
2022-10-13T06:15:06.754Z,100.00
2022-10-13T06:17:08.475Z,100.00
2022-10-13T06:19:09.923Z,100.00
2022-10-13T06:21:11.387Z,100.00
2022-10-13T06:23:12.839Z,100.00
2022-10-13T06:25:14.513Z,100.00
2022-10-13T06:27:17.312Z,100.00
2022-10-13T06:29:18.809Z,100.00
2022-10-13T06:31:21.501Z,100.00
2022-10-13T06:33:23.034Z,100.00
2022-10-13T06:35:24.500Z,100.00
2022-10-13T06:37:27.508Z,100.00
2022-10-13T06:39:29.150Z,100.00
2022-10-13T06:41:30.672Z,100.00
2022-10-13T06:43:39.841Z,100.00
2022-10-13T06:45:42.004Z,100.00
2022-10-13T06:47:43.314Z,100.00
2022-10-13T06:49:44.765Z,100.00
2022-10-13T06:51:46.032Z,100.00
2022-10-13T06:53:47.578Z,100.00
2022-10-13T06:55:52.302Z,100.00
2022-10-13T06:57:53.979Z,100.00
2022-10-13T06:59:56.804Z,100.00
2022-10-13T07:01:58.255Z,100.00
2022-10-13T07:03:59.561Z,100.00
2022-10-13T07:06:01.254Z,100.00
2022-10-13T07:08:02.722Z,100.00
2022-10-13T07:10:04.252Z,100.00
2022-10-13T07:12:06.247Z,100.00
2022-10-13T07:14:07.690Z,100.00
2022-10-13T07:16:11.023Z,100.00
2022-10-13T07:18:12.487Z,100.00
2022-10-13T07:20:13.821Z,100.00
2022-10-13T07:22:15.376Z,100.00
2022-10-13T07:24:16.713Z,100.00
2022-10-13T07:26:18.209Z,100.00
2022-10-13T07:28:19.579Z,100.00
2022-10-13T07:30:21.786Z,100.00
2022-10-13T07:32:24.672Z,100.00
2022-10-13T07:34:26.162Z,100.00
2022-10-13T07:36:28.016Z,100.00
2022-10-13T07:38:30.137Z,100.00
2022-10-13T07:40:31.698Z,100.00
2022-10-13T07:42:33.492Z,100.00
2022-10-13T07:44:34.961Z,100.00
2022-10-13T07:46:36.253Z,100.00
2022-10-13T07:48:39.357Z,100.00
2022-10-13T07:50:40.772Z,100.00
2022-10-13T07:52:42.062Z,100.00
2022-10-13T07:54:44.182Z,100.00
2022-10-13T07:56:45.855Z,100.00
2022-10-13T07:58:48.025Z,100.00
2022-10-13T08:00:56.051Z,98.05
2022-10-13T08:02:57.521Z,99.61
2022-10-13T08:05:00.196Z,99.24
2022-10-13T08:07:02.110Z,97.11
2022-10-13T08:09:04.320Z,97.22
2022-10-13T08:11:07.532Z,95.81
2022-10-13T08:13:10.432Z,95.22
2022-10-13T08:15:12.064Z,94.93
2022-10-13T08:17:19.988Z,93.71
2022-10-13T08:19:21.611Z,95.32
2022-10-13T08:21:57.699Z,96.82
2022-10-13T08:23:46.744Z,95.14
2022-10-13T08:25:48.277Z,94.94
2022-10-13T08:27:51.358Z,93.01
2022-10-13T08:29:53.975Z,90.74
2022-10-13T08:31:55.603Z,92.85
2022-10-13T08:33:57.097Z,91.12
2022-10-13T08:35:58.699Z,93.44
2022-10-13T08:38:01.548Z,92.56
2022-10-13T08:40:03.404Z,90.07
2022-10-13T08:42:14.725Z,90.01
2022-10-13T08:45:05.887Z,88.78
2022-10-13T08:46:50.705Z,88.28
2022-10-13T08:48:52.686Z,87.96
2022-10-13T08:50:59.442Z,87.89
2022-10-13T08:53:07.307Z,86.92
2022-10-13T08:55:13.518Z,87.25
2022-10-13T08:57:15.159Z,87.17
2022-10-13T08:59:18.041Z,87.53
2022-10-13T09:01:23.054Z,87.48
2022-10-13T09:03:26.826Z,87.10
2022-10-13T09:05:41.154Z,87.60
2022-10-13T09:07:46.181Z,88.03
2022-10-13T09:09:51.511Z,88.33
2022-10-13T09:11:52.988Z,89.52
2022-10-13T09:13:55.954Z,89.99
2022-10-13T09:15:58.267Z,91.02
2022-10-13T09:18:10.050Z,89.67
2022-10-13T09:20:19.684Z,89.73
2022-10-13T09:22:24.107Z,90.69
2022-10-13T09:24:27.176Z,90.10
2022-10-13T09:26:30.057Z,89.87
2022-10-13T09:28:32.987Z,90.23
2022-10-13T09:30:36.421Z,89.64
2022-10-13T09:32:37.911Z,92.05
2022-10-13T09:34:39.528Z,91.44
2022-10-13T09:36:55.855Z,92.41
2022-10-13T09:39:12.653Z,91.14
2022-10-13T09:41:19.438Z,90.75
2022-10-13T09:43:28.951Z,90.80
2022-10-13T09:45:30.667Z,91.96
2022-10-13T09:47:32.242Z,91.06
2022-10-13T09:49:37.090Z,90.86
2022-10-13T09:51:41.453Z,89.34
2022-10-13T09:53:47.274Z,90.77
2022-10-13T09:55:48.799Z,88.65
2022-10-13T09:57:53.375Z,88.95
2022-10-13T10:00:04.253Z,89.50
2022-10-13T10:02:21.239Z,89.05
2022-10-13T10:04:31.858Z,89.51
2022-10-13T10:06:34.630Z,90.04
2022-10-13T10:09:01.698Z,89.73
2022-10-13T10:11:05.729Z,89.03
2022-10-13T10:13:10.795Z,87.56
2022-10-13T10:15:23.684Z,88.00
2022-10-13T10:17:32.154Z,86.35
2022-10-13T10:19:47.691Z,84.89
2022-10-13T10:21:53.709Z,83.39
2022-10-13T10:23:59.804Z,84.82
2022-10-13T10:26:05.387Z,84.91
2022-10-13T10:28:27.454Z,85.48
2022-10-13T10:30:35.220Z,83.74
2022-10-13T10:32:43.344Z,83.93
2022-10-13T10:34:50.517Z,84.08
2022-10-13T10:37:04.279Z,85.78
2022-10-13T10:39:19.028Z,85.15
2022-10-13T10:41:35.512Z,85.31
2022-10-13T10:43:44.810Z,84.98
2022-10-13T10:45:48.029Z,86.93
2022-10-13T10:47:54.229Z,86.38
2022-10-13T10:50:01.952Z,87.00
2022-10-13T10:52:08.218Z,85.85
2022-10-13T10:54:23.028Z,87.62
2022-10-13T10:56:31.662Z,87.87
2022-10-13T10:58:41.311Z,87.61
2022-10-13T11:00:53.829Z,86.73
2022-10-13T11:03:02.429Z,86.92
2022-10-13T11:05:06.318Z,86.27
2022-10-13T11:07:12.042Z,85.02
2022-10-13T11:09:13.572Z,85.55
2022-10-13T11:11:37.871Z,84.86
2022-10-13T11:13:51.641Z,84.63
2022-10-13T11:15:54.561Z,84.57
2022-10-13T11:17:56.119Z,83.25
2022-10-13T11:19:58.469Z,82.90
2022-10-13T11:22:22.928Z,81.49
2022-10-13T11:24:49.644Z,82.12
2022-10-13T11:26:51.181Z,82.22
2022-10-13T11:28:52.828Z,82.69
2022-10-13T11:30:57.303Z,80.97
2022-10-13T11:32:58.862Z,80.73
2022-10-13T11:35:13.970Z,80.71
2022-10-13T11:37:16.975Z,79.64
2022-10-13T11:39:58.604Z,79.89
2022-10-13T11:42:10.222Z,78.75
2022-10-13T11:44:21.643Z,77.81
2022-10-13T11:46:26.986Z,77.51
2022-10-13T11:48:47.991Z,76.27
2022-10-13T11:50:58.759Z,73.97
2022-10-13T11:53:10.368Z,75.47
2022-10-13T11:55:17.412Z,74.04
2022-10-13T11:57:21.092Z,73.68
2022-10-13T11:59:25.968Z,74.39
2022-10-13T12:01:28.783Z,71.86
2022-10-13T12:03:32.174Z,72.54
2022-10-13T12:05:33.640Z,71.83
2022-10-13T12:07:39.357Z,71.28
2022-10-13T12:09:49.736Z,71.42
2022-10-13T12:11:57.422Z,70.45
2022-10-13T12:14:00.689Z,70.86
2022-10-13T12:16:04.180Z,71.12
2022-10-13T12:18:21.616Z,71.65
2022-10-13T12:20:25.627Z,70.77
2022-10-13T12:22:28.183Z,70.52
2022-10-13T12:24:30.444Z,70.35
2022-10-13T12:26:32.000Z,69.89
2022-10-13T12:28:48.519Z,69.23
2022-10-13T12:30:52.456Z,67.17
2022-10-13T12:32:55.718Z,67.63
2022-10-13T12:35:10.958Z,67.12
2022-10-13T12:37:18.471Z,66.67
2022-10-13T12:39:20.553Z,67.95
2022-10-13T12:41:26.139Z,69.11
2022-10-13T12:43:27.649Z,68.09
2022-10-13T12:45:32.860Z,69.78
2022-10-13T12:47:48.090Z,71.09
2022-10-13T12:49:49.595Z,71.90
2022-10-13T12:51:56.147Z,72.51
2022-10-13T12:53:57.750Z,72.65
2022-10-13T12:56:01.786Z,72.01
2022-10-13T12:58:03.421Z,72.77
2022-10-13T13:00:05.780Z,74.13
2022-10-13T13:02:21.206Z,74.27
2022-10-13T13:04:31.303Z,73.93
2022-10-13T13:06:35.990Z,74.75
2022-10-13T13:08:39.651Z,72.92
2022-10-13T13:10:53.929Z,73.23
2022-10-13T13:12:55.714Z,73.34
2022-10-13T13:14:57.246Z,73.30
2022-10-13T13:17:03.177Z,73.94
2022-10-13T13:19:04.670Z,74.39
2022-10-13T13:21:06.904Z,75.39
2022-10-13T13:23:08.384Z,74.22
2022-10-13T13:25:11.224Z,74.81
2022-10-13T13:27:23.093Z,74.69
2022-10-13T13:29:26.223Z,74.83
2022-10-13T13:31:27.833Z,75.03
2022-10-13T13:33:29.311Z,75.07
2022-10-13T13:35:30.997Z,75.70
2022-10-13T13:37:37.457Z,75.30
2022-10-13T13:39:38.971Z,75.78
2022-10-13T13:41:42.028Z,76.00
2022-10-13T13:43:43.576Z,76.20
2022-10-13T13:45:45.104Z,76.13
2022-10-13T13:47:46.973Z,75.74
2022-10-13T13:49:50.018Z,75.24
2022-10-13T13:51:51.472Z,74.87
2022-10-13T13:53:52.914Z,74.86
2022-10-13T13:55:54.425Z,74.29
2022-10-13T13:57:57.952Z,74.36
2022-10-13T13:59:59.451Z,73.04
2022-10-13T14:02:01.483Z,73.15
2022-10-13T14:04:02.939Z,72.49
2022-10-13T14:06:05.487Z,73.04
2022-10-13T14:08:07.522Z,70.93
2022-10-13T14:10:10.374Z,70.31
2022-10-13T14:12:12.200Z,70.38
2022-10-13T14:14:15.425Z,70.76
2022-10-13T14:16:17.703Z,70.48
2022-10-13T14:18:19.355Z,71.15
2022-10-13T14:20:21.969Z,71.01
2022-10-13T14:22:23.659Z,70.49
2022-10-13T14:24:25.325Z,70.95
2022-10-13T14:26:26.954Z,71.79
2022-10-13T14:28:28.460Z,71.65
2022-10-13T14:30:31.353Z,71.33
2022-10-13T14:32:33.245Z,71.10
2022-10-13T14:34:34.717Z,70.10
2022-10-13T14:36:36.216Z,71.86
2022-10-13T14:38:37.711Z,71.23
2022-10-13T14:40:40.809Z,72.10
2022-10-13T14:42:42.246Z,72.94
2022-10-13T14:44:43.805Z,72.29
2022-10-13T14:46:46.619Z,71.62
2022-10-13T14:48:48.592Z,71.78
2022-10-13T14:50:50.089Z,71.82
2022-10-13T14:52:51.575Z,72.20
2022-10-13T14:54:53.150Z,72.11
2022-10-13T14:56:54.658Z,72.89
2022-10-13T14:58:57.588Z,72.05
2022-10-13T15:00:59.066Z,72.46
2022-10-13T15:03:01.989Z,72.40
2022-10-13T15:05:04.047Z,72.90
2022-10-13T15:07:05.639Z,74.10
2022-10-13T15:11:09.772Z,74.10
2022-10-13T15:13:11.544Z,74.71
2022-10-13T15:15:13.260Z,75.17
2022-10-13T15:17:14.849Z,76.01
2022-10-13T15:19:18.774Z,76.48
2022-10-13T15:21:20.854Z,76.90
2022-10-13T15:23:22.310Z,76.97
2022-10-13T15:25:23.794Z,77.21
2022-10-13T15:27:25.345Z,78.14
2022-10-13T15:29:26.848Z,78.69
2022-10-13T15:31:28.735Z,79.32
2022-10-13T15:33:30.385Z,79.85
2022-10-13T15:35:33.266Z,80.99
2022-10-13T15:37:34.727Z,80.94
2022-10-13T15:39:36.597Z,81.46
2022-10-13T15:41:38.043Z,81.54
2022-10-13T15:43:39.499Z,82.02
2022-10-13T15:45:41.387Z,82.57
2022-10-13T15:47:42.827Z,82.74
2022-10-13T15:49:44.313Z,83.47
2022-10-13T15:51:47.468Z,84.15
2022-10-13T15:53:48.937Z,84.43
2022-10-13T15:55:50.592Z,84.72
2022-10-13T15:57:52.188Z,84.90
2022-10-13T15:59:53.726Z,84.78
2022-10-13T16:01:55.287Z,84.81
2022-10-13T16:03:57.102Z,85.24
2022-10-13T16:06:02.246Z,86.12
2022-10-13T16:08:05.201Z,86.23
2022-10-13T16:10:07.641Z,86.36
2022-10-13T16:12:09.098Z,86.99
2022-10-13T16:14:10.645Z,86.97
2022-10-13T16:16:12.286Z,87.94
2022-10-13T16:18:13.727Z,88.38
2022-10-13T16:20:15.175Z,88.33
2022-10-13T16:22:16.720Z,88.49
2022-10-13T16:24:19.593Z,88.22
2022-10-13T16:26:21.263Z,88.73
2022-10-13T16:28:22.830Z,89.45
2022-10-13T16:30:24.590Z,89.37
2022-10-13T16:32:26.167Z,90.05
2022-10-13T16:34:27.927Z,89.78
2022-10-13T16:36:29.413Z,90.21
2022-10-13T16:38:31.053Z,90.30
2022-10-13T16:40:33.895Z,90.89
2022-10-13T16:42:35.377Z,90.89
2022-10-13T16:44:36.979Z,91.17
2022-10-13T16:46:38.802Z,91.44
2022-10-13T16:48:41.522Z,91.70
2022-10-13T16:50:42.987Z,91.69
2022-10-13T16:52:44.717Z,91.90
2022-10-13T16:54:46.476Z,92.09
2022-10-13T16:56:49.307Z,92.00
2022-10-13T16:58:55.848Z,92.28
2022-10-13T17:01:02.944Z,92.38
2022-10-13T17:03:05.009Z,92.69
2022-10-13T17:05:06.843Z,92.97
2022-10-13T17:07:08.341Z,92.73
2022-10-13T17:09:10.669Z,92.90
2022-10-13T17:11:16.854Z,93.62
2022-10-13T17:13:19.658Z,93.46
2022-10-13T17:15:21.125Z,93.55
2022-10-13T17:17:23.022Z,93.87
2022-10-13T17:19:24.760Z,94.09
2022-10-13T17:21:26.482Z,94.31
2022-10-13T17:23:29.580Z,95.25
2022-10-13T17:25:33.846Z,95.42
2022-10-13T17:27:35.701Z,96.47
2022-10-13T17:29:38.575Z,96.39
2022-10-13T17:31:40.099Z,96.91
2022-10-13T17:33:42.749Z,97.52
2022-10-13T17:35:44.397Z,98.30
2022-10-13T17:37:49.146Z,98.32
2022-10-13T17:39:50.815Z,98.52
2022-10-13T17:41:52.436Z,99.12
2022-10-13T17:43:53.913Z,99.45
2022-10-13T17:46:31.105Z,100.00
2022-10-13T17:48:28.635Z,100.00
2022-10-13T17:50:30.097Z,100.00
2022-10-13T17:52:31.553Z,100.00
2022-10-13T17:54:33.037Z,100.00
2022-10-13T17:56:34.499Z,100.00
2022-10-13T17:58:36.810Z,100.00
2022-10-13T18:01:00.633Z,100.00
2022-10-13T18:03:01.143Z,100.00
2022-10-13T18:05:02.979Z,100.00
2022-10-13T18:07:04.474Z,100.00
2022-10-13T18:09:07.456Z,100.00
2022-10-13T18:11:11.127Z,100.00
2022-10-13T18:13:12.695Z,100.00
2022-10-13T18:15:14.417Z,100.00
2022-10-13T18:17:15.945Z,100.00
2022-10-13T18:19:19.188Z,100.00
2022-10-13T18:21:22.620Z,100.00
2022-10-13T18:23:24.048Z,100.00
2022-10-13T18:25:25.503Z,100.00
2022-10-13T18:27:26.974Z,100.00
2022-10-13T18:29:28.656Z,100.00
2022-10-13T18:31:32.080Z,100.00
2022-10-13T18:33:33.627Z,100.00
2022-10-13T18:35:36.461Z,100.00
2022-10-13T18:37:38.215Z,100.00
2022-10-13T18:39:39.681Z,100.00
2022-10-13T18:41:41.875Z,100.00
2022-10-13T18:43:43.426Z,100.00
2022-10-13T18:45:44.883Z,100.00
2022-10-13T18:47:50.434Z,100.00
2022-10-13T18:49:51.926Z,100.00
2022-10-13T18:51:54.732Z,100.00
2022-10-13T18:53:56.793Z,100.00
2022-10-13T18:56:03.261Z,100.00
2022-10-13T18:58:04.754Z,100.00
2022-10-13T19:00:07.353Z,100.00
2022-10-13T19:02:09.421Z,100.00
2022-10-13T19:04:11.299Z,100.00
2022-10-13T19:06:14.490Z,100.00
2022-10-13T19:08:17.375Z,100.00
2022-10-13T19:10:18.994Z,100.00
2022-10-13T19:12:20.545Z,100.00
2022-10-13T19:14:22.040Z,100.00
2022-10-13T19:16:24.977Z,100.00
2022-10-13T19:18:26.657Z,100.00
2022-10-13T19:20:28.209Z,100.00
2022-10-13T19:22:29.665Z,100.00
2022-10-13T19:24:32.556Z,100.00
2022-10-13T19:26:35.688Z,100.00
2022-10-13T19:28:37.400Z,100.00
2022-10-13T19:30:39.386Z,100.00
2022-10-13T19:32:41.106Z,100.00
2022-10-13T19:34:42.591Z,100.00
2022-10-13T19:36:45.641Z,100.00
2022-10-13T19:38:47.190Z,100.00
2022-10-13T19:40:50.182Z,100.00
2022-10-13T19:42:51.576Z,100.00
2022-10-13T19:44:52.890Z,100.00
2022-10-13T19:46:54.612Z,100.00
2022-10-13T19:48:56.054Z,100.00
2022-10-13T19:51:00.269Z,100.00
2022-10-13T19:53:01.766Z,100.00
2022-10-13T19:55:03.881Z,100.00
2022-10-13T19:57:06.806Z,100.00
2022-10-13T19:59:08.323Z,100.00
2022-10-13T20:01:09.885Z,100.00
2022-10-13T20:03:12.357Z,100.00
2022-10-13T20:05:13.826Z,100.00
2022-10-13T20:07:15.128Z,100.00
2022-10-13T20:09:17.463Z,100.00
2022-10-13T20:11:23.790Z,100.00
2022-10-13T20:13:27.193Z,100.00
2022-10-13T20:15:28.619Z,100.00
2022-10-13T20:17:29.964Z,100.00
2022-10-13T20:19:31.482Z,100.00
2022-10-13T20:21:32.989Z,100.00
2022-10-13T20:23:35.051Z,100.00
2022-10-13T20:25:36.993Z,100.00
2022-10-13T20:27:38.442Z,100.00
2022-10-13T20:29:41.073Z,100.00
2022-10-13T20:31:44.916Z,100.00
2022-10-13T20:33:47.184Z,100.00
2022-10-13T20:35:48.791Z,100.00
2022-10-13T20:37:50.513Z,100.00
2022-10-13T20:39:53.926Z,100.00
2022-10-13T20:41:55.385Z,100.00
2022-10-13T20:43:59.493Z,100.00
2022-10-13T20:46:04.970Z,100.00
2022-10-13T20:48:06.479Z,100.00
2022-10-13T20:50:08.502Z,100.00
2022-10-13T20:52:10.214Z,100.00
2022-10-13T20:54:13.689Z,100.00
2022-10-13T20:56:17.932Z,100.00
2022-10-13T20:58:19.422Z,100.00
2022-10-13T21:00:21.067Z,100.00
2022-10-13T21:02:23.859Z,100.00
2022-10-13T21:04:25.353Z,100.00
2022-10-13T21:06:26.940Z,100.00
2022-10-13T21:08:29.034Z,100.00
2022-10-13T21:10:30.807Z,100.00
2022-10-13T21:12:32.340Z,100.00
2022-10-13T21:14:33.839Z,100.00
2022-10-13T21:16:36.272Z,100.00
2022-10-13T21:18:39.287Z,100.00
2022-10-13T21:20:40.760Z,100.00
2022-10-13T21:22:43.979Z,100.00
2022-10-13T21:24:45.422Z,100.00
2022-10-13T21:26:46.693Z,100.00
2022-10-13T21:28:48.538Z,100.00
2022-10-13T21:30:59.380Z,100.00
2022-10-13T21:33:00.927Z,100.00
2022-10-13T21:35:04.315Z,100.00
2022-10-13T21:37:05.771Z,100.00
2022-10-13T21:39:07.085Z,100.00
2022-10-13T21:41:10.395Z,100.00
2022-10-13T21:43:11.868Z,100.00
2022-10-13T21:45:13.402Z,100.00
2022-10-13T21:47:14.919Z,100.00
2022-10-13T21:49:16.411Z,100.00
2022-10-13T21:51:20.801Z,100.00
2022-10-13T21:53:22.309Z,100.00
2022-10-13T21:55:24.043Z,100.00
2022-10-13T21:57:25.600Z,100.00
2022-10-13T21:59:27.241Z,100.00
2022-10-13T22:01:29.020Z,100.00
2022-10-13T22:03:30.870Z,100.00
2022-10-13T22:05:32.379Z,100.00
2022-10-13T22:07:35.197Z,100.00
2022-10-13T22:09:36.869Z,100.00
2022-10-13T22:11:39.205Z,100.00
2022-10-13T22:13:41.076Z,100.00
2022-10-13T22:15:42.585Z,100.00
2022-10-13T22:17:44.097Z,100.00
2022-10-13T22:19:45.597Z,100.00
2022-10-13T22:21:48.957Z,100.00
2022-10-13T22:23:51.915Z,100.00
2022-10-13T22:25:53.384Z,100.00
2022-10-13T22:27:54.680Z,100.00
2022-10-13T22:29:56.155Z,100.00
2022-10-13T22:31:57.586Z,100.00
2022-10-13T22:33:59.905Z,100.00
2022-10-13T22:36:06.354Z,100.00
2022-10-13T22:38:07.857Z,100.00
2022-10-13T22:40:11.746Z,100.00
2022-10-13T22:42:13.327Z,100.00
2022-10-13T22:44:16.814Z,100.00
2022-10-13T22:46:20.198Z,100.00
2022-10-13T22:48:21.807Z,100.00
2022-10-13T22:50:23.245Z,100.00
2022-10-13T22:52:24.566Z,100.00
2022-10-13T22:54:26.318Z,100.00
2022-10-13T22:56:31.222Z,100.00
2022-10-13T22:58:32.713Z,100.00
2022-10-13T23:00:34.597Z,100.00
2022-10-13T23:02:36.289Z,100.00
2022-10-13T23:04:38.095Z,100.00
2022-10-13T23:06:39.673Z,100.00
2022-10-13T23:08:43.644Z,100.00
2022-10-13T23:10:45.049Z,100.00
2022-10-13T23:12:47.699Z,100.00
2022-10-13T23:14:49.125Z,100.00
2022-10-13T23:16:50.449Z,100.00
2022-10-13T23:18:52.455Z,100.00
2022-10-13T23:20:56.892Z,100.00
2022-10-13T23:22:58.587Z,100.00
2022-10-13T23:24:59.912Z,100.00
2022-10-13T23:27:01.440Z,100.00
2022-10-13T23:29:04.951Z,100.00
2022-10-13T23:31:10.216Z,100.00
2022-10-13T23:33:11.708Z,100.00
2022-10-13T23:35:13.382Z,100.00
2022-10-13T23:37:14.861Z,100.00
2022-10-13T23:39:16.170Z,100.00
2022-10-13T23:41:17.606Z,100.00
2022-10-13T23:43:19.172Z,100.00
2022-10-13T23:45:22.031Z,100.00
2022-10-13T23:47:23.822Z,100.00
2022-10-13T23:49:25.574Z,100.00
2022-10-13T23:51:27.145Z,100.00
2022-10-13T23:53:28.428Z,100.00
2022-10-13T23:55:30.174Z,100.00
2022-10-13T23:57:31.661Z,100.00
2022-10-13T23:59:32.978Z,100.00
